METAR AND TAF INFORMATION
METAR FOR ENSG
ADDS - METARS form results

(1239 UTC 03 October 2022)
Data provider http://aviationweather.gov/metar/data/
 
METAR text: ENSG 031150Z 22005KT 9999 VCSH FEW025 BKN045 09/05 Q1019 RMK WIND 3806FT 27019KT
Conditions at: ENSG (SOGNDAL/HAUKASEN, NO) observed 1150 UTC 03 October 2022
Temperature: 9.0°C (48°F)
Dewpoint: 5.0°C (41°F) [RH = 76%]
Pressure (altimeter): 30.09 inches Hg (1019.0 mb)
Winds: from the SW (220 degrees) at 6 MPH (5 knots; 2.6 m/s)
Visibility: 6 or more miles (10+ km)
Ceiling: 4500 feet AGL
Clouds: few clouds at 2500 feet AGL
broken clouds at 4500 feet AGL
Weather: VCSH  (showers in vicinity)

 AIRPORT MAP

 RUNWAY INFORMATION
Runway 06 Runway length 3150 ft Runway width 0 ft
Runway elevation 1619 ft Runway displaced threshold 0 ft Runway heading 0
Runway 24 Runway length 3150 ft Runway width 0 ft
Runway elevation 1634 ft Runway displaced threshold 0 ft Runway heading 0

 AIRPORT FREQUENCIES
Type INFO Name Sogndal In Frequency 121.5 MHZ
Type AFIS Name Sogndal Frequency 119.3 MHZ

 AIRPORT NEAR NAVIGATION AIDS
Type VOR-DME Name Sogndal Frequency 114200 KHZ





Powered by Virtual Airlines Manager

Maps by Rafael Santos